Steven M. Bryan — WDF2628 — position and weather

sailwx.info

Track history (hours):
 
Tides and Currents Weather Stations Pressure Air Temp Water Temp Dewpoint Dewpoint Depression Visibility Wind Speed Wind Dir Waves Ship Positions

Steven M. Bryan

Owner: Florida Marine Transporters, Inc., Mandeville, LA. More information available from US FCC via Universal Licensing System and Coast Guard Vessel Documentation Center.

Last reported at 2017-Nov-23 14:02 UTC. Time now 2017-Nov-24 02:14 UTC.
Position N 30°04' W 093°41'.

Length 27 m; draft 9.6 m.

Type: Other ship. MMSI: 367430050.

Date/timePositionNaut miles runAvg speedWind from/ knotsBaromVisibWave heightAir tempDewpointWater temp
2017-Nov-23 14:02N 30°04' W 093°41'0 5.6
2017-Nov-23 14:00N 30°04' W 093°41'3 5.6
2017-Nov-23 13:30N 30°04' W 093°38'3 5.5
2017-Nov-23 13:00N 30°04' W 093°35'3 5.5
2017-Nov-23 12:30N 30°04' W 093°31'3 5.6
2017-Nov-23 12:00N 30°04' W 093°28'3 5.6
2017-Nov-23 11:30N 30°04' W 093°25'3 5.7
2017-Nov-23 11:00N 30°04' W 093°22'2 4.7
2017-Nov-23 10:30N 30°05' W 093°20'1 1.9
2017-Nov-23 10:00N 30°06' W 093°19'1 2.9
2017-Nov-23 09:30N 30°05' W 093°18'1 1.7
2017-Nov-23 09:00N 30°05' W 093°17'0 0.1
2017-Nov-23 08:30N 30°05' W 093°17'0 0.0
2017-Nov-23 08:00N 30°05' W 093°17'0 0.0
2017-Nov-23 07:30N 30°05' W 093°17'0 0.0
2017-Nov-23 07:00N 30°05' W 093°17'0 0.1
2017-Nov-23 06:30N 30°05' W 093°17'0 0.1
2017-Nov-23 06:00N 30°05' W 093°17'0 0.0
2017-Nov-23 05:30N 30°05' W 093°17'0 0.0
2017-Nov-23 05:00N 30°05' W 093°17'0 0.0
2017-Nov-23 04:30N 30°05' W 093°17'0 0.0
2017-Nov-23 04:00N 30°05' W 093°17'0 0.0
2017-Nov-23 03:30N 30°05' W 093°17'1 1.7
2017-Nov-23 03:00N 30°04' W 093°16'2 3.1
2017-Nov-23 02:30N 30°03' W 093°16'0 0.1
2017-Nov-23 02:00N 30°02' W 093°16'0 0.0
2017-Nov-23 01:30N 30°02' W 093°16'0 0.0
2017-Nov-23 01:00N 30°02' W 093°16'0 0.0
2017-Nov-23 00:30N 30°02' W 093°16'0 0.0
2017-Nov-23 00:00N 30°02' W 093°16'0 0.0
2017-Nov-22 23:30N 30°02' W 093°16'0 0.0
2017-Nov-22 23:00N 30°02' W 093°16'0 0.0
2017-Nov-22 22:30N 30°02' W 093°16'0 0.0
2017-Nov-22 22:00N 30°02' W 093°16'0 0.0
2017-Nov-22 21:30N 30°02' W 093°16'0 0.0
2017-Nov-22 21:00N 30°02' W 093°16'0 0.0
2017-Nov-22 20:30N 30°02' W 093°16'0 0.0
2017-Nov-22 20:00N 30°02' W 093°16'0 0.0
2017-Nov-22 19:30N 30°02' W 093°16'  
2017-Nov-18 19:49N 29°50' W 091°58'2 5.0
2017-Nov-18 19:30N 29°50' W 091°60'3 5.1
2017-Nov-18 19:00N 29°49' W 092°02'3 4.8
2017-Nov-18 18:28N 29°48' W 092°05'2 4.8
2017-Nov-18 18:00N 29°47' W 092°07'2 4.7
2017-Nov-18 17:30N 29°47' W 092°10'2 4.0
2017-Nov-18 17:00N 29°47' W 092°12'0 0.9
2017-Nov-18 16:30N 29°47' W 092°13'2 3.7
2017-Nov-18 16:00N 29°48' W 092°15'2 4.6
2017-Nov-18 15:30N 29°49' W 092°17'2 4.2
2017-Nov-18 15:00N 29°50' W 092°19'2 3.8
2017-Nov-18 14:26N 29°51' W 092°21'37 3.8
2017-Nov-18 04:45N 29°56' W 093°04'2 4.2
2017-Nov-18 04:22N 29°56' W 093°06'2 4.4
2017-Nov-18 04:00N 29°56' W 093°08'2 4.2
2017-Nov-18 03:30N 29°57' W 093°10'2 4.5
2017-Nov-18 03:00N 29°58' W 093°12'2 4.5
2017-Nov-18 02:30N 29°60' W 093°13'2 3.8
2017-Nov-18 02:00N 30°02' W 093°14'2 3.7
2017-Nov-18 01:30N 30°03' W 093°16'2 3.3
2017-Nov-18 01:00N 30°05' W 093°17'1 2.5
2017-Nov-18 00:30N 30°05' W 093°18'1 1.4
2017-Nov-18 00:00N 30°06' W 093°18'0 0.1
2017-Nov-17 23:30N 30°06' W 093°18'0 0.0
2017-Nov-17 23:00N 30°06' W 093°18'0 0.0
2017-Nov-17 22:30N 30°06' W 093°18'0 0.0
2017-Nov-17 22:00N 30°06' W 093°18'0 0.0
2017-Nov-17 21:30N 30°06' W 093°18'0 0.0
2017-Nov-17 21:00N 30°06' W 093°18'0 0.0
2017-Nov-17 20:30N 30°06' W 093°18'0 0.0
2017-Nov-17 20:00N 30°06' W 093°18'0 0.0
2017-Nov-17 19:30N 30°06' W 093°18'0 0.0
2017-Nov-17 19:00N 30°06' W 093°18'0 0.0
2017-Nov-17 18:30N 30°06' W 093°18'0 0.0
2017-Nov-17 18:00N 30°06' W 093°18'0 0.0
2017-Nov-17 17:30N 30°06' W 093°18'0 0.0
2017-Nov-17 17:00N 30°06' W 093°18'0 0.0
2017-Nov-17 16:30N 30°06' W 093°18'0 0.0
2017-Nov-17 16:00N 30°06' W 093°18'0 0.0
2017-Nov-17 15:30N 30°06' W 093°18'0 0.0
2017-Nov-17 15:00N 30°06' W 093°18'0 0.2
2017-Nov-17 14:30N 30°06' W 093°18'1 1.3
2017-Nov-17 14:00N 30°06' W 093°19'2 4.5
2017-Nov-17 13:30N 30°04' W 093°21'2 3.6
2017-Nov-17 13:00N 30°04' W 093°23'2 4.3
2017-Nov-17 12:30N 30°04' W 093°25'2 4.7
2017-Nov-17 12:00N 30°04' W 093°28'2 4.6
2017-Nov-17 11:30N 30°04' W 093°30'2 4.6
2017-Nov-17 11:00N 30°04' W 093°33'3 4.5
2017-Nov-17 10:21N 30°04' W 093°37'2 4.9
2017-Nov-17 10:00N 30°04' W 093°39'72 2.3
2017-Nov-16 02:09N 29°30' W 094°52'1 5.0
2017-Nov-16 02:00N 29°30' W 094°52'3 5.1
2017-Nov-16 01:30N 29°32' W 094°54'3 5.5
2017-Nov-16 01:00N 29°35' W 094°56'3 5.6
2017-Nov-16 00:30N 29°37' W 094°57'3 5.6
2017-Nov-16 00:00N 29°40' W 094°58'3 5.1
2017-Nov-15 23:30N 29°42' W 094°60'2 4.0
2017-Nov-15 23:00N 29°44' W 095°01'4 0.5
2017-Nov-15 14:07N 29°45' W 095°06'2 6.7
2017-Nov-15 13:52N 29°44' W 095°08'1 0.8
2017-Nov-15 12:01N 29°44' W 095°10'0 0.2
2017-Nov-15 11:59N 29°44' W 095°10'0 0.0
2017-Nov-15 11:28N 29°44' W 095°10'0 0.0
2017-Nov-15 10:46N 29°44' W 095°10'0 0.0
2017-Nov-15 10:24N 29°44' W 095°10'0 0.0
2017-Nov-15 06:43N 29°44' W 095°10'0 0.0
2017-Nov-15 06:29N 29°44' W 095°10'0 0.0
2017-Nov-15 05:51N 29°44' W 095°10'0 0.0
2017-Nov-15 05:14N 29°44' W 095°10'0 0.0
2017-Nov-15 04:58N 29°44' W 095°10'0 0.0
2017-Nov-15 04:25N 29°44' W 095°10'0 0.0
2017-Nov-14 22:16N 29°44' W 095°10'0 0.0
2017-Nov-14 21:45N 29°44' W 095°10'0 0.0
2017-Nov-14 21:24N 29°44' W 095°10'0 0.0
2017-Nov-14 20:59N 29°44' W 095°10'0 0.0
2017-Nov-14 20:29N 29°44' W 095°10'0 0.0
2017-Nov-14 18:40N 29°44' W 095°10'0 0.0
2017-Nov-14 18:25N 29°44' W 095°10'0 0.0
2017-Nov-14 17:56N 29°44' W 095°10'1 1.1
2017-Nov-14 17:27N 29°44' W 095°09'4 1.1
2017-Nov-14 14:17N 29°46' W 095°05'1 0.2
2017-Nov-14 11:28N 29°46' W 095°05'2 4.6
2017-Nov-14 11:00N 29°44' W 095°03'3 5.4
2017-Nov-14 10:30N 29°42' W 095°01'4 7.5
2017-Nov-14 10:00N 29°40' W 094°58'4 8.4
2017-Nov-14 09:30N 29°36' W 094°57'4 8.6
2017-Nov-14 09:00N 29°32' W 094°54'  
Track history (hours):
 
Tides and Currents Weather Stations Pressure Air Temp Water Temp Dewpoint Dewpoint Depression Visibility Wind Speed Wind Dir Waves Ship Positions

Steven M. Bryan

Owner: Florida Marine Transporters, Inc., Mandeville, LA. More information available from US FCC via Universal Licensing System and Coast Guard Vessel Documentation Center.

Last reported at 2017-Nov-23 14:02 UTC. Time now 2017-Nov-24 02:14 UTC.
Position N 30°04' W 093°41'.

Length 27 m; draft 9.6 m.

Type: Other ship. MMSI: 367430050.

Date/timePositionNaut miles runAvg speedWind from/ knotsBaromVisibWave heightAir tempDewpointWater temp
2017-Nov-23 14:02N 30°04' W 093°41'0 5.6
2017-Nov-23 14:00N 30°04' W 093°41'3 5.6
2017-Nov-23 13:30N 30°04' W 093°38'3 5.5
2017-Nov-23 13:00N 30°04' W 093°35'3 5.5
2017-Nov-23 12:30N 30°04' W 093°31'3 5.6
2017-Nov-23 12:00N 30°04' W 093°28'3 5.6
2017-Nov-23 11:30N 30°04' W 093°25'3 5.7
2017-Nov-23 11:00N 30°04' W 093°22'2 4.7
2017-Nov-23 10:30N 30°05' W 093°20'1 1.9
2017-Nov-23 10:00N 30°06' W 093°19'1 2.9
2017-Nov-23 09:30N 30°05' W 093°18'1 1.7
2017-Nov-23 09:00N 30°05' W 093°17'0 0.1
2017-Nov-23 08:30N 30°05' W 093°17'0 0.0
2017-Nov-23 08:00N 30°05' W 093°17'0 0.0
2017-Nov-23 07:30N 30°05' W 093°17'0 0.0
2017-Nov-23 07:00N 30°05' W 093°17'0 0.1
2017-Nov-23 06:30N 30°05' W 093°17'0 0.1
2017-Nov-23 06:00N 30°05' W 093°17'0 0.0
2017-Nov-23 05:30N 30°05' W 093°17'0 0.0
2017-Nov-23 05:00N 30°05' W 093°17'0 0.0
2017-Nov-23 04:30N 30°05' W 093°17'0 0.0
2017-Nov-23 04:00N 30°05' W 093°17'0 0.0
2017-Nov-23 03:30N 30°05' W 093°17'1 1.7
2017-Nov-23 03:00N 30°04' W 093°16'2 3.1
2017-Nov-23 02:30N 30°03' W 093°16'0 0.1
2017-Nov-23 02:00N 30°02' W 093°16'0 0.0
2017-Nov-23 01:30N 30°02' W 093°16'0 0.0
2017-Nov-23 01:00N 30°02' W 093°16'0 0.0
2017-Nov-23 00:30N 30°02' W 093°16'0 0.0
2017-Nov-23 00:00N 30°02' W 093°16'0 0.0
2017-Nov-22 23:30N 30°02' W 093°16'0 0.0
2017-Nov-22 23:00N 30°02' W 093°16'0 0.0
2017-Nov-22 22:30N 30°02' W 093°16'0 0.0
2017-Nov-22 22:00N 30°02' W 093°16'0 0.0
2017-Nov-22 21:30N 30°02' W 093°16'0 0.0
2017-Nov-22 21:00N 30°02' W 093°16'0 0.0
2017-Nov-22 20:30N 30°02' W 093°16'0 0.0
2017-Nov-22 20:00N 30°02' W 093°16'0 0.0
2017-Nov-22 19:30N 30°02' W 093°16'  
2017-Nov-18 19:49N 29°50' W 091°58'2 5.0
2017-Nov-18 19:30N 29°50' W 091°60'3 5.1
2017-Nov-18 19:00N 29°49' W 092°02'3 4.8
2017-Nov-18 18:28N 29°48' W 092°05'2 4.8
2017-Nov-18 18:00N 29°47' W 092°07'2 4.7
2017-Nov-18 17:30N 29°47' W 092°10'2 4.0
2017-Nov-18 17:00N 29°47' W 092°12'0 0.9
2017-Nov-18 16:30N 29°47' W 092°13'2 3.7
2017-Nov-18 16:00N 29°48' W 092°15'2 4.6
2017-Nov-18 15:30N 29°49' W 092°17'2 4.2
2017-Nov-18 15:00N 29°50' W 092°19'2 3.8
2017-Nov-18 14:26N 29°51' W 092°21'37 3.8
2017-Nov-18 04:45N 29°56' W 093°04'2 4.2
2017-Nov-18 04:22N 29°56' W 093°06'2 4.4
2017-Nov-18 04:00N 29°56' W 093°08'2 4.2
2017-Nov-18 03:30N 29°57' W 093°10'2 4.5
2017-Nov-18 03:00N 29°58' W 093°12'2 4.5
2017-Nov-18 02:30N 29°60' W 093°13'2 3.8
2017-Nov-18 02:00N 30°02' W 093°14'2 3.7
2017-Nov-18 01:30N 30°03' W 093°16'2 3.3
2017-Nov-18 01:00N 30°05' W 093°17'1 2.5
2017-Nov-18 00:30N 30°05' W 093°18'1 1.4
2017-Nov-18 00:00N 30°06' W 093°18'0 0.1
2017-Nov-17 23:30N 30°06' W 093°18'0 0.0
2017-Nov-17 23:00N 30°06' W 093°18'0 0.0
2017-Nov-17 22:30N 30°06' W 093°18'0 0.0
2017-Nov-17 22:00N 30°06' W 093°18'0 0.0
2017-Nov-17 21:30N 30°06' W 093°18'0 0.0
2017-Nov-17 21:00N 30°06' W 093°18'0 0.0
2017-Nov-17 20:30N 30°06' W 093°18'0 0.0
2017-Nov-17 20:00N 30°06' W 093°18'0 0.0
2017-Nov-17 19:30N 30°06' W 093°18'0 0.0
2017-Nov-17 19:00N 30°06' W 093°18'0 0.0
2017-Nov-17 18:30N 30°06' W 093°18'0 0.0
2017-Nov-17 18:00N 30°06' W 093°18'0 0.0
2017-Nov-17 17:30N 30°06' W 093°18'0 0.0
2017-Nov-17 17:00N 30°06' W 093°18'0 0.0
2017-Nov-17 16:30N 30°06' W 093°18'0 0.0
2017-Nov-17 16:00N 30°06' W 093°18'0 0.0
2017-Nov-17 15:30N 30°06' W 093°18'0 0.0
2017-Nov-17 15:00N 30°06' W 093°18'0 0.2
2017-Nov-17 14:30N 30°06' W 093°18'1 1.3
2017-Nov-17 14:00N 30°06' W 093°19'2 4.5
2017-Nov-17 13:30N 30°04' W 093°21'2 3.6
2017-Nov-17 13:00N 30°04' W 093°23'2 4.3
2017-Nov-17 12:30N 30°04' W 093°25'2 4.7
2017-Nov-17 12:00N 30°04' W 093°28'2 4.6
2017-Nov-17 11:30N 30°04' W 093°30'2 4.6
2017-Nov-17 11:00N 30°04' W 093°33'3 4.5
2017-Nov-17 10:21N 30°04' W 093°37'2 4.9
2017-Nov-17 10:00N 30°04' W 093°39'72 2.3
2017-Nov-16 02:09N 29°30' W 094°52'1 5.0
2017-Nov-16 02:00N 29°30' W 094°52'3 5.1
2017-Nov-16 01:30N 29°32' W 094°54'3 5.5
2017-Nov-16 01:00N 29°35' W 094°56'3 5.6
2017-Nov-16 00:30N 29°37' W 094°57'3 5.6
2017-Nov-16 00:00N 29°40' W 094°58'3 5.1
2017-Nov-15 23:30N 29°42' W 094°60'2 4.0
2017-Nov-15 23:00N 29°44' W 095°01'4 0.5
2017-Nov-15 14:07N 29°45' W 095°06'2 6.7
2017-Nov-15 13:52N 29°44' W 095°08'1 0.8
2017-Nov-15 12:01N 29°44' W 095°10'0 0.2
2017-Nov-15 11:59N 29°44' W 095°10'0 0.0
2017-Nov-15 11:28N 29°44' W 095°10'0 0.0
2017-Nov-15 10:46N 29°44' W 095°10'0 0.0
2017-Nov-15 10:24N 29°44' W 095°10'0 0.0
2017-Nov-15 06:43N 29°44' W 095°10'0 0.0
2017-Nov-15 06:29N 29°44' W 095°10'0 0.0
2017-Nov-15 05:51N 29°44' W 095°10'0 0.0
2017-Nov-15 05:14N 29°44' W 095°10'0 0.0
2017-Nov-15 04:58N 29°44' W 095°10'0 0.0
2017-Nov-15 04:25N 29°44' W 095°10'0 0.0
2017-Nov-14 22:16N 29°44' W 095°10'0 0.0
2017-Nov-14 21:45N 29°44' W 095°10'0 0.0
2017-Nov-14 21:24N 29°44' W 095°10'0 0.0
2017-Nov-14 20:59N 29°44' W 095°10'0 0.0
2017-Nov-14 20:29N 29°44' W 095°10'0 0.0
2017-Nov-14 18:40N 29°44' W 095°10'0 0.0
2017-Nov-14 18:25N 29°44' W 095°10'0 0.0
2017-Nov-14 17:56N 29°44' W 095°10'1 1.1
2017-Nov-14 17:27N 29°44' W 095°09'4 1.1
2017-Nov-14 14:17N 29°46' W 095°05'1 0.2
2017-Nov-14 11:28N 29°46' W 095°05'2 4.6
2017-Nov-14 11:00N 29°44' W 095°03'3 5.4
2017-Nov-14 10:30N 29°42' W 095°01'4 7.5
2017-Nov-14 10:00N 29°40' W 094°58'4 8.4
2017-Nov-14 09:30N 29°36' W 094°57'4 8.6
2017-Nov-14 09:00N 29°32' W 094°54'  

Dump ship's entire track history